createdAt,value
2022-12-03T00:55:09.149Z,9.9
2022-12-03T01:00:06.914Z,9.9
2022-12-03T01:05:06.603Z,8
2022-12-03T01:10:06.689Z,8
2022-12-03T01:15:06.688Z,9.1
2022-12-03T01:20:06.884Z,7.4
2022-12-03T01:25:06.869Z,7.1
2022-12-03T01:30:07.016Z,10
2022-12-03T01:35:07.004Z,6.9
2022-12-03T01:40:07.101Z,10.2
2022-12-03T01:45:07.152Z,7.6
2022-12-03T01:50:07.176Z,8.2
2022-12-03T01:55:06.349Z,8.1
2022-12-03T02:00:06.604Z,7.9
2022-12-03T02:05:06.256Z,9.2
2022-12-03T02:10:06.300Z,8.1
2022-12-03T02:15:06.277Z,8.5
2022-12-03T02:20:06.442Z,8
2022-12-03T02:25:07.184Z,8.7
2022-12-03T02:30:07.192Z,10.1
2022-12-03T02:35:07.201Z,9.5
2022-12-03T02:40:06.360Z,7.8
2022-12-03T02:45:06.405Z,9.3
2022-12-03T02:50:07.074Z,8.2
2022-12-03T02:55:06.415Z,9.8
2022-12-03T03:00:06.975Z,9.6
2022-12-03T03:05:06.757Z,7.8
2022-12-03T03:10:06.362Z,9
2022-12-03T03:15:06.466Z,8.3
2022-12-03T03:20:06.574Z,10.4
2022-12-03T03:25:06.580Z,9.2
2022-12-03T03:30:06.628Z,9.3
2022-12-03T03:35:06.767Z,8.2
2022-12-03T03:40:06.720Z,9.6
2022-12-03T03:45:06.738Z,7.4
2022-12-03T03:50:06.789Z,8
2022-12-03T03:55:06.823Z,9.2
2022-12-03T04:00:06.991Z,7
2022-12-03T04:05:06.665Z,9
2022-12-03T04:10:06.673Z,7.9
2022-12-03T04:15:06.817Z,6.1
2022-12-03T04:20:06.907Z,8.3
2022-12-03T04:25:07.481Z,6.5
2022-12-03T04:30:07.066Z,8.3
2022-12-03T04:35:07.110Z,7.2
2022-12-03T04:40:07.086Z,6.5
2022-12-03T04:45:07.036Z,6.9
2022-12-03T04:50:07.018Z,7.6
2022-12-03T04:55:07.089Z,6.7
2022-12-03T05:00:07.127Z,8
2022-12-03T05:05:06.771Z,7.1
2022-12-03T05:10:06.939Z,10.2
2022-12-03T05:15:06.984Z,7
2022-12-03T05:20:06.924Z,7.7
2022-12-03T05:25:06.903Z,6.6
2022-12-03T05:30:06.998Z,7.8
2022-12-03T05:35:07.114Z,6.1
2022-12-03T05:40:07.063Z,8
2022-12-03T05:45:07.151Z,8.4
2022-12-03T05:50:06.385Z,7.4
2022-12-03T05:55:06.377Z,8.2
2022-12-03T06:00:06.496Z,7.7
2022-12-03T06:05:06.997Z,6.9
2022-12-03T06:10:07.158Z,7.2
2022-12-03T06:15:06.310Z,7.8
2022-12-03T06:20:06.976Z,8.4
2022-12-03T06:25:07.110Z,7.8
2022-12-03T06:30:07.113Z,8.6
2022-12-03T06:35:07.137Z,8.8
2022-12-03T06:40:07.237Z,11.1
2022-12-03T06:45:07.231Z,15.7
2022-12-03T06:50:07.176Z,19.4
2022-12-03T06:55:06.259Z,17.3
2022-12-03T07:00:07.347Z,16.6
2022-12-03T07:05:06.955Z,16.4
2022-12-03T07:10:06.941Z,15.9
2022-12-03T07:15:06.831Z,11.5
2022-12-03T07:20:06.882Z,13.4
2022-12-03T07:25:06.829Z,11
2022-12-03T07:30:06.884Z,12.5
2022-12-03T07:35:07.136Z,12.9
2022-12-03T07:40:07.136Z,11.2
2022-12-03T07:45:07.105Z,10.2
2022-12-03T07:50:07.193Z,10.8
2022-12-03T07:55:07.120Z,10.9
2022-12-03T08:00:07.335Z,11.4
2022-12-03T08:05:07.019Z,9.6
2022-12-03T08:10:07.034Z,9.8
2022-12-03T08:15:06.918Z,5.5
2022-12-03T08:20:07.020Z,8.5
2022-12-03T08:25:06.813Z,7.5
2022-12-03T08:30:06.853Z,10
2022-12-03T08:35:06.790Z,10.8
2022-12-03T08:40:06.787Z,10
2022-12-03T08:45:07.034Z,8.7
2022-12-03T08:50:06.369Z,13.7
2022-12-03T08:55:07.161Z,10.9
2022-12-03T09:00:06.505Z,13.3
2022-12-03T09:05:07.106Z,9.6
2022-12-03T09:10:07.208Z,11.2
2022-12-03T09:15:07.190Z,10.6
2022-12-03T09:20:07.180Z,11.2
2022-12-03T09:25:06.357Z,8
2022-12-03T09:30:06.356Z,10.4
2022-12-03T09:35:07.220Z,8.3
2022-12-03T09:40:06.368Z,7.9
2022-12-03T09:45:06.308Z,8.5
2022-12-03T09:50:06.409Z,11
2022-12-03T09:55:06.415Z,8.5
2022-12-03T10:00:06.613Z,11.2
2022-12-03T10:05:06.212Z,7.9
2022-12-03T10:10:06.478Z,6.7
2022-12-03T10:15:06.606Z,6.6
2022-12-03T10:20:06.654Z,9.7
2022-12-03T10:25:06.620Z,8.8
2022-12-03T10:30:06.565Z,11.1
2022-12-03T10:35:06.134Z,10.9
2022-12-03T10:40:06.634Z,10.6
2022-12-03T10:45:06.100Z,11.3
2022-12-03T10:50:06.435Z,13.9
2022-12-03T10:55:06.685Z,11.7
2022-12-03T11:00:06.367Z,13.7
2022-12-03T11:05:06.504Z,12.6
2022-12-03T11:10:06.700Z,13.9
2022-12-03T11:15:07.072Z,13.6
2022-12-03T11:20:06.709Z,11.5
2022-12-03T11:25:06.617Z,14.1
2022-12-03T11:30:06.252Z,12.7
2022-12-03T11:35:06.882Z,15.3
2022-12-03T11:40:06.765Z,12.5
2022-12-03T11:45:06.278Z,11.6
2022-12-03T11:50:06.674Z,14.1
2022-12-03T11:55:06.913Z,11.8
2022-12-03T12:00:06.881Z,10.1
2022-12-03T12:05:07.053Z,10.4
2022-12-03T12:10:06.376Z,10.5
2022-12-03T12:15:06.885Z,12.4
2022-12-03T12:20:06.227Z,11.8
2022-12-03T12:25:06.580Z,12
2022-12-03T12:30:06.185Z,11.1
2022-12-03T12:35:06.442Z,15.4
2022-12-03T12:40:06.726Z,13.3
2022-12-03T12:45:06.368Z,11.3
2022-12-03T12:50:07.049Z,9.9
2022-12-03T12:55:06.288Z,11.1
2022-12-03T13:00:06.508Z,10.2
2022-12-03T13:05:06.454Z,21.1
2022-12-03T13:10:06.684Z,11.6
2022-12-03T13:15:06.553Z,12.9
2022-12-03T13:20:06.531Z,10.3
2022-12-03T13:25:06.775Z,11
2022-12-03T13:30:06.406Z,13.3
2022-12-03T13:35:06.650Z,11.7
2022-12-03T13:40:07.028Z,11.6
2022-12-03T13:45:06.326Z,12.1
2022-12-03T13:50:07.042Z,10.9
2022-12-03T13:55:06.888Z,11.4
2022-12-03T14:00:06.369Z,12
2022-12-03T14:05:06.211Z,10.6
2022-12-03T14:10:06.578Z,13.3
2022-12-03T14:15:06.815Z,10.2
2022-12-03T14:20:07.100Z,12.6
2022-12-03T14:25:06.368Z,10.7
2022-12-03T14:30:06.686Z,9.7
2022-12-03T14:35:06.898Z,9.3
2022-12-03T14:40:06.202Z,10.8
2022-12-03T14:45:06.501Z,10.8
2022-12-03T14:50:06.864Z,11.4
2022-12-03T14:55:06.152Z,10.4
2022-12-03T15:00:06.549Z,14.4
2022-12-03T15:05:06.434Z,13.5
2022-12-03T15:10:06.801Z,13.1
2022-12-03T15:15:07.030Z,14.9
2022-12-03T15:20:06.436Z,13.1
2022-12-03T15:25:06.713Z,14
2022-12-03T15:30:07.025Z,13
2022-12-03T15:35:06.289Z,13.2
2022-12-03T15:40:06.606Z,13.6
2022-12-03T15:45:06.888Z,13
2022-12-03T15:50:06.214Z,15.5
2022-12-03T15:55:06.729Z,13.6
2022-12-03T16:00:07.077Z,13.8
2022-12-03T16:05:06.983Z,12.7
2022-12-03T16:10:06.338Z,12.4
2022-12-03T16:15:06.547Z,12.7
2022-12-03T16:20:06.911Z,13.5
2022-12-03T16:25:06.249Z,14.1
2022-12-03T16:30:06.588Z,15.1
2022-12-03T16:35:07.014Z,14
2022-12-03T16:40:06.339Z,12.7
2022-12-03T16:45:06.560Z,11.6
2022-12-03T16:50:06.860Z,14.6
2022-12-03T16:55:07.049Z,13.2
2022-12-03T17:00:06.417Z,13.5
2022-12-03T17:05:06.276Z,15
2022-12-03T17:10:06.611Z,17.5
2022-12-03T17:15:06.987Z,12.7
2022-12-03T17:20:06.292Z,13.8
2022-12-03T17:25:06.552Z,15
2022-12-03T17:30:06.867Z,16
2022-12-03T17:35:06.209Z,16.4
2022-12-03T17:40:06.449Z,14.4
2022-12-03T17:45:06.758Z,11.9
2022-12-03T17:50:07.113Z,15.8
2022-12-03T17:55:06.416Z,15.4
2022-12-03T18:00:06.454Z,17.4
2022-12-03T18:05:06.808Z,17.7
2022-12-03T18:10:06.163Z,17
2022-12-03T18:15:06.498Z,17.9
2022-12-03T18:20:06.163Z,16.2
2022-12-03T18:25:06.389Z,13.6
2022-12-03T18:30:06.576Z,14.5
2022-12-03T18:35:06.803Z,15.2
2022-12-03T18:40:06.133Z,14.6
2022-12-03T18:45:06.291Z,15.7
2022-12-03T18:50:06.556Z,14.8
2022-12-03T18:55:06.716Z,17.5
2022-12-03T19:00:07.023Z,15.1
2022-12-03T19:05:06.945Z,18.7
2022-12-03T19:10:06.263Z,16.1
2022-12-03T19:15:06.553Z,14.2
2022-12-03T19:20:06.179Z,14.3
2022-12-03T19:25:06.376Z,16.9
2022-12-03T19:30:06.658Z,14.3
2022-12-03T19:35:06.995Z,15.5
2022-12-03T19:40:06.366Z,13.1
2022-12-03T19:45:06.759Z,12.4
2022-12-03T19:50:07.061Z,12.4
2022-12-03T19:55:06.399Z,12.7
2022-12-03T20:00:06.886Z,12.9
2022-12-03T20:05:06.807Z,12.4
2022-12-03T20:10:06.119Z,12.4
2022-12-03T20:15:06.317Z,11.9
2022-12-03T20:20:06.890Z,12.9
2022-12-03T20:25:06.150Z,12.4
2022-12-03T20:30:06.370Z,13.1
2022-12-03T20:35:06.557Z,13.3
2022-12-03T20:40:06.867Z,12.7
2022-12-03T20:45:06.212Z,12.8
2022-12-03T20:50:06.585Z,11.6
2022-12-03T20:55:06.728Z,11.8
2022-12-03T21:00:07.024Z,12.8
2022-12-03T21:05:07.034Z,11.9
2022-12-03T21:10:06.340Z,13.5
2022-12-03T21:15:06.588Z,13
2022-12-03T21:20:06.892Z,15.2
2022-12-03T21:25:06.352Z,12.7
2022-12-03T21:30:06.556Z,12.1
2022-12-03T21:35:06.137Z,12.2
2022-12-03T21:40:06.206Z,11.3
2022-12-03T21:45:06.527Z,10.4
2022-12-03T21:50:06.860Z,10.6
2022-12-03T21:55:06.086Z,11.1
2022-12-03T22:00:06.693Z,7
2022-12-03T22:05:06.515Z,9
2022-12-03T22:10:06.855Z,11.4
2022-12-03T22:15:07.052Z,10.4
2022-12-03T22:20:06.397Z,10.7
2022-12-03T22:25:06.656Z,7.4
2022-12-03T22:30:06.921Z,7.5
2022-12-03T22:35:06.136Z,9.1
2022-12-03T22:40:06.465Z,8.1
2022-12-03T22:45:06.889Z,8.5
2022-12-03T22:50:06.280Z,7.3
2022-12-03T22:55:06.502Z,6.5
2022-12-03T23:00:06.795Z,6.6
2022-12-03T23:05:06.865Z,8.6
2022-12-03T23:10:06.273Z,7.5
2022-12-03T23:15:06.929Z,6
2022-12-03T23:20:06.121Z,7.7
2022-12-03T23:25:06.449Z,6
2022-12-03T23:30:06.726Z,5.5
2022-12-03T23:35:06.874Z,8.8
2022-12-03T23:40:06.187Z,7.3
2022-12-03T23:45:06.419Z,7.2
2022-12-03T23:50:06.708Z,8.9
2022-12-03T23:55:06.969Z,8.6
